createdAt,value
2022-08-28T00:03:30.650Z,22
2022-08-28T00:09:05.519Z,21.9
2022-08-28T00:14:40.960Z,21.9
2022-08-28T00:20:16.827Z,21.8
2022-08-28T00:25:55.564Z,21.8
2022-08-28T00:31:30.249Z,21.7
2022-08-28T00:37:06.673Z,21.7
2022-08-28T00:43:03.780Z,21.7
2022-08-28T00:48:39.253Z,21.6
2022-08-28T00:54:14.200Z,21.6
2022-08-28T00:59:52.774Z,21.6
2022-08-28T01:05:27.863Z,21.6
2022-08-28T01:11:02.649Z,21.5
2022-08-28T01:16:37.512Z,21.5
2022-08-28T01:22:12.510Z,21.4
2022-08-28T01:27:47.250Z,21.4
2022-08-28T01:33:27.842Z,21.4
2022-08-28T01:39:04.315Z,21.3
2022-08-28T01:45:00.999Z,21.3
2022-08-28T01:50:33.827Z,21.2
2022-08-28T01:56:09.036Z,21.2
2022-08-28T02:01:43.842Z,21.2
2022-08-28T02:07:19.863Z,21.1
2022-08-28T02:12:54.812Z,21.1
2022-08-28T02:18:34.418Z,21
2022-08-28T02:24:19.111Z,21
2022-08-28T02:29:54.218Z,21
2022-08-28T02:35:29.927Z,20.9
2022-08-28T02:41:04.674Z,20.9
2022-08-28T02:46:39.412Z,20.9
2022-08-28T02:52:15.687Z,20.8
2022-08-28T02:57:50.676Z,20.8
2022-08-28T03:03:25.393Z,20.8
2022-08-28T03:09:00.228Z,20.7
2022-08-28T03:14:36.341Z,20.7
2022-08-28T03:20:13.925Z,20.6
2022-08-28T03:25:48.944Z,20.6
2022-08-28T03:31:23.771Z,20.5
2022-08-28T03:36:58.554Z,20.5
2022-08-28T03:42:55.021Z,20.5
2022-08-28T03:48:28.687Z,20.4
2022-08-28T03:54:03.500Z,20.4
2022-08-28T03:59:38.267Z,20.4
2022-08-28T04:05:13.871Z,20.3
2022-08-28T04:10:48.860Z,20.3
2022-08-28T04:16:23.835Z,20.3
2022-08-28T04:22:00.891Z,20.2
2022-08-28T04:27:36.084Z,20.2
2022-08-28T04:33:12.055Z,20.2
2022-08-28T04:38:46.829Z,20.1
2022-08-28T04:44:43.422Z,20.1
2022-08-28T04:50:16.086Z,20.1
2022-08-28T04:55:54.018Z,20
2022-08-28T05:01:30.271Z,20
2022-08-28T05:07:05.739Z,20
2022-08-28T05:12:40.601Z,19.9
2022-08-28T05:18:15.412Z,19.9
2022-08-28T05:23:51.347Z,19.9
2022-08-28T05:29:26.131Z,19.9
2022-08-28T05:35:00.937Z,19.9
2022-08-28T05:40:35.971Z,19.8
2022-08-28T05:46:12.577Z,19.8
2022-08-28T05:51:48.848Z,19.8
2022-08-28T05:57:23.844Z,19.8
2022-08-28T06:02:58.460Z,19.9
2022-08-28T06:08:33.651Z,19.9
2022-08-28T06:14:10.947Z,19.9
2022-08-28T06:19:46.224Z,19.9
2022-08-28T06:25:21.145Z,19.9
2022-08-28T06:31:18.308Z,20
2022-08-28T06:37:09.257Z,20
2022-08-28T06:43:05.777Z,20.1
2022-08-28T06:48:38.351Z,20.1
2022-08-28T06:54:13.064Z,20.3
2022-08-28T06:59:57.812Z,20.2
2022-08-28T07:05:32.549Z,20.4
2022-08-28T07:11:07.570Z,20.4
2022-08-28T07:16:42.553Z,20.5
2022-08-28T07:22:18.031Z,20.5
2022-08-28T07:27:53.899Z,20.8
2022-08-28T07:33:28.653Z,21.1
2022-08-28T07:39:03.685Z,21.2
2022-08-28T07:45:00.264Z,21.5
2022-08-28T07:50:32.937Z,21.6
2022-08-28T07:56:07.728Z,21.7
2022-08-28T08:01:42.515Z,21.9
2022-08-28T08:07:19.645Z,22.2
2022-08-28T08:12:54.551Z,22.3
2022-08-28T08:18:31.250Z,22.5
2022-08-28T08:24:10.487Z,22.7
2022-08-28T08:29:57.942Z,22.8
2022-08-28T08:35:32.669Z,23
2022-08-28T08:41:07.726Z,23.2
2022-08-28T08:46:42.701Z,23.4
2022-08-28T08:52:18.650Z,23.6
2022-08-28T08:57:53.636Z,23.7
2022-08-28T09:03:28.453Z,23.8
2022-08-28T09:09:04.179Z,24.1
2022-08-28T09:14:39.033Z,24.2
2022-08-28T09:20:14.292Z,24.5
2022-08-28T09:25:50.382Z,24.6
2022-08-28T09:31:27.916Z,24.8
2022-08-28T09:37:06.061Z,24.7
2022-08-28T09:42:40.955Z,24.7
2022-08-28T09:48:16.234Z,24.8
2022-08-28T09:53:51.428Z,25
2022-08-28T09:59:26.059Z,25.2
2022-08-28T10:05:00.952Z,25.3
2022-08-28T10:10:36.256Z,25.5
2022-08-28T10:16:11.061Z,25.7
2022-08-28T10:21:46.705Z,25.9
2022-08-28T10:27:21.510Z,26
2022-08-28T10:32:56.590Z,26.2
2022-08-28T10:38:32.409Z,26.3
2022-08-28T10:44:07.793Z,26.5
2022-08-28T10:49:42.609Z,26.7
2022-08-28T10:55:17.815Z,26.9
2022-08-28T11:00:52.497Z,26.9
2022-08-28T11:06:27.555Z,27.1
2022-08-28T11:12:02.662Z,27.2
2022-08-28T11:17:37.703Z,27.5
2022-08-28T11:23:13.270Z,27.6
2022-08-28T11:28:53.535Z,27.7
2022-08-28T11:34:36.509Z,27.8
2022-08-28T11:40:11.199Z,28
2022-08-28T11:45:47.386Z,28.2
2022-08-28T11:51:24.579Z,28.5
2022-08-28T11:57:01.071Z,28.6
2022-08-28T12:02:36.397Z,28.7
2022-08-28T12:08:14.038Z,28.8
2022-08-28T12:13:48.884Z,28.8
2022-08-28T12:19:24.669Z,28.9
2022-08-28T12:24:59.504Z,29
2022-08-28T12:30:35.382Z,28.1
2022-08-28T12:36:11.629Z,27.8
2022-08-28T12:42:08.402Z,27.8
2022-08-28T12:47:41.106Z,28
2022-08-28T12:53:15.961Z,28.2
2022-08-28T12:59:00.682Z,28.4
2022-08-28T13:04:35.596Z,28.6
2022-08-28T13:10:14.851Z,28.8
2022-08-28T13:15:49.765Z,29
2022-08-28T13:21:32.624Z,29.2
2022-08-28T13:27:09.996Z,29.5
2022-08-28T13:32:44.809Z,29.7
2022-08-28T13:38:23.437Z,29.9
2022-08-28T13:44:22.541Z,30.2
2022-08-28T13:49:56.321Z,30.4
2022-08-28T13:55:30.999Z,30.7
2022-08-28T14:01:05.955Z,30.9
2022-08-28T14:06:42.143Z,31.1
2022-08-28T14:12:17.339Z,31.3
2022-08-28T14:17:52.329Z,31.5
2022-08-28T14:23:27.255Z,31.7
2022-08-28T14:29:03.241Z,31.9
2022-08-28T14:34:38.030Z,32.1
2022-08-28T14:40:16.590Z,32.3
2022-08-28T14:45:53.433Z,32.5
2022-08-28T14:51:29.734Z,32.7
2022-08-28T14:57:05.141Z,32.8
2022-08-28T15:02:41.283Z,32.9
2022-08-28T15:08:16.363Z,33.1
2022-08-28T15:13:52.213Z,33.2
2022-08-28T15:19:27.113Z,33.2
2022-08-28T15:25:01.986Z,33
2022-08-28T15:30:36.904Z,32.6
2022-08-28T15:36:23.212Z,32.4
2022-08-28T15:42:19.793Z,32.1
2022-08-28T15:47:53.723Z,31.6
2022-08-28T15:53:28.385Z,31.3
2022-08-28T15:59:03.061Z,31
2022-08-28T16:04:37.750Z,30.8
2022-08-28T16:10:13.651Z,30.7
2022-08-28T16:15:48.384Z,30.7
2022-08-28T16:21:23.227Z,30.8
2022-08-28T16:27:03.949Z,30.7
2022-08-28T16:32:55.674Z,30.7
2022-08-28T16:38:33.391Z,30.6
2022-08-28T16:44:32.404Z,30.6
2022-08-28T16:50:05.127Z,30.5
2022-08-28T16:55:42.514Z,30.2
2022-08-28T17:01:17.553Z,29.9
2022-08-28T17:06:59.207Z,29.7
2022-08-28T17:12:34.116Z,29.6
2022-08-28T17:18:10.268Z,29.6
2022-08-28T17:23:45.156Z,29.6
2022-08-28T17:29:20.077Z,29.5
2022-08-28T17:34:54.683Z,29.3
2022-08-28T17:40:29.608Z,29.2
2022-08-28T17:46:05.342Z,29
2022-08-28T17:51:43.103Z,29
2022-08-28T17:57:19.804Z,28.9
2022-08-28T18:02:56.711Z,28.6
2022-08-28T18:08:35.784Z,28.1
2022-08-28T18:14:10.661Z,27.9
2022-08-28T18:19:49.394Z,27.7
2022-08-28T18:25:25.240Z,27.5
2022-08-28T18:31:00.296Z,27.2
2022-08-28T18:36:35.804Z,26.9
2022-08-28T18:42:32.282Z,27
2022-08-28T18:48:05.178Z,26.9
2022-08-28T18:53:42.303Z,26.6
2022-08-28T18:59:18.158Z,26.2
2022-08-28T19:04:52.898Z,26.1
2022-08-28T19:10:33.778Z,25.8
2022-08-28T19:16:10.205Z,25.6
2022-08-28T19:21:46.299Z,25.4
2022-08-28T19:27:22.123Z,25.5
2022-08-28T19:32:57.853Z,25.3
2022-08-28T19:38:32.673Z,25.3
2022-08-28T19:44:29.447Z,25.3
2022-08-28T19:50:03.032Z,24.9
2022-08-28T19:55:37.937Z,24.7
2022-08-28T20:01:13.119Z,24.6
2022-08-28T20:06:48.546Z,24.4
2022-08-28T20:12:23.413Z,24.4
2022-08-28T20:17:58.208Z,24.1
2022-08-28T20:23:32.869Z,23.9
2022-08-28T20:29:07.568Z,23.8
2022-08-28T20:34:44.444Z,23.8
2022-08-28T20:40:20.774Z,23.7
2022-08-28T20:45:56.533Z,23.6
2022-08-28T20:51:32.348Z,23.5
2022-08-28T20:57:07.132Z,23.3
2022-08-28T21:02:42.518Z,23.2
2022-08-28T21:08:17.233Z,23.1
2022-08-28T21:13:52.125Z,23
2022-08-28T21:19:28.557Z,23
2022-08-28T21:25:15.245Z,23
2022-08-28T21:30:50.070Z,22.9
2022-08-28T21:36:25.874Z,22.6
2022-08-28T21:42:22.406Z,22.4
2022-08-28T21:47:55.261Z,22.3
2022-08-28T21:53:30.135Z,22.7
2022-08-28T21:59:05.145Z,22.8
2022-08-28T22:04:39.884Z,22.6
2022-08-28T22:10:14.745Z,22.9
2022-08-28T22:15:49.460Z,23.2
2022-08-28T22:21:24.816Z,23.3
2022-08-28T22:26:59.771Z,23.4
2022-08-28T22:32:35.705Z,23.4
2022-08-28T22:38:10.326Z,23.4
2022-08-28T22:44:07.308Z,23.5
2022-08-28T22:49:40.068Z,23.4
2022-08-28T22:55:14.836Z,23.4
2022-08-28T23:00:49.612Z,23.4
2022-08-28T23:06:24.336Z,23.4
2022-08-28T23:12:00.167Z,23.4
2022-08-28T23:17:35.327Z,23.3
2022-08-28T23:23:11.651Z,23.3
2022-08-28T23:28:46.570Z,23.3
2022-08-28T23:34:21.357Z,23.3
2022-08-28T23:39:59.352Z,23.3
2022-08-28T23:45:36.539Z,23.3
2022-08-28T23:51:13.030Z,23.3
2022-08-28T23:56:48.708Z,23.2
